Time;durP1;ratioP1;P1;durP2;ratioP2;P2;SDS_P1;SDS_P2;PMS_P1;PMS_P2;Temp;Humidity;BMP_temperature;BMP_pressure;BME280_temperature;BME280_humidity;BME280_pressure;Samples;Min_cycle;Max_cycle;Signal;HPM_P1;HPM_P2
2022/10/22 00:00:54;;;;;;;550.45;304.45;;;;;;;;;;5095355;28;20089;-69
2022/10/22 00:03:21;;;;;;;564.95;314.83;;;;;;;;;;5094964;28;20016;-67
2022/10/22 00:05:47;;;;;;;563.25;316.27;;;;;;;;;;5094112;28;20089;-68
2022/10/22 00:08:13;;;;;;;563.03;308.63;;;;;;;;;;5094010;28;20020;-67
2022/10/22 00:10:40;;;;;;;550.03;297.02;;;;;;;;;;5094734;28;20020;-68
2022/10/22 00:13:07;;;;;;;547.90;298.77;;;;;;;;;;5095329;28;20027;-68
2022/10/22 00:15:33;;;;;;;561.00;313.65;;;;;;;;;;5095154;28;20085;-68
2022/10/22 00:17:59;;;;;;;552.63;314.95;;;;;;;;;;5094698;28;20031;-67
2022/10/22 00:20:25;;;;;;;544.75;309.10;;;;;;;;;;5093705;28;20028;-68
2022/10/22 00:22:51;;;;;;;558.88;308.33;;;;;;;;;;5094638;28;20504;-67
2022/10/22 00:25:17;;;;;;;559.63;310.17;;;;;;;;;;5094989;28;20016;-68
2022/10/22 00:27:43;;;;;;;562.22;313.40;;;;;;;;;;5095120;28;20088;-67
2022/10/22 00:30:10;;;;;;;556.92;310.25;;;;;;;;;;5094515;28;20384;-68
2022/10/22 00:32:36;;;;;;;505.77;288.58;;;;;;;;;;5094811;28;20070;-68
2022/10/22 00:35:02;;;;;;;545.78;310.05;;;;;;;;;;5094809;28;20035;-68
2022/10/22 00:37:29;;;;;;;475.67;286.83;;;;;;;;;;5094646;28;20028;-67
2022/10/22 00:39:55;;;;;;;536.83;302.13;;;;;;;;;;5094725;28;20099;-68
2022/10/22 00:42:23;;;;;;;544.85;307.73;;;;;;;;;;5095149;28;20028;-67
2022/10/22 00:45:08;;;;;;;564.28;314.05;;;;;;;;;;5092959;28;20097;-67
2022/10/22 00:47:39;;;;;;;557.22;308.63;;;;;;;;;;5094585;28;20133;-67
2022/10/22 00:50:07;;;;;;;554.90;306.50;;;;;;;;;;5094918;28;20020;-68
2022/10/22 00:52:33;;;;;;;541.95;308.73;;;;;;;;;;5094044;28;20112;-67
2022/10/22 00:55:00;;;;;;;475.38;287.15;;;;;;;;;;5094157;28;20044;-68
2022/10/22 00:57:27;;;;;;;461.95;285.40;;;;;;;;;;5094687;28;20174;-68
2022/10/22 00:59:53;;;;;;;452.75;277.50;;;;;;;;;;5093975;28;20089;-68
2022/10/22 01:02:20;;;;;;;430.42;273.52;;;;;;;;;;5094235;28;20111;-68
2022/10/22 01:04:46;;;;;;;370.67;240.23;;;;;;;;;;5092447;28;20030;-68
2022/10/22 01:07:17;;;;;;;411.42;262.92;;;;;;;;;;5093728;28;20058;-67
2022/10/22 01:09:58;;;;;;;423.75;265.65;;;;;;;;;;5094327;28;20063;-67
2022/10/22 01:12:32;;;;;;;424.08;265.08;;;;;;;;;;5093697;28;20032;-67
2022/10/22 01:14:58;;;;;;;;;;;;;;;;;;5094774;28;20032;-68
2022/10/22 01:17:27;;;;;;;432.92;270.95;;;;;;;;;;5092832;28;20440;-67
2022/10/22 01:19:53;;;;;;;433.55;268.83;;;;;;;;;;5093589;28;20030;-67
2022/10/22 01:22:38;;;;;;;417.95;262.38;;;;;;;;;;5094191;28;20051;-67
2022/10/22 01:25:21;;;;;;;387.80;250.60;;;;;;;;;;5093971;28;20028;-67
2022/10/22 01:27:47;;;;;;;;;;;;;;;;;;5094078;28;20107;-67
2022/10/22 01:30:14;;;;;;;390.98;253.23;;;;;;;;;;5094135;28;19992;-68
2022/10/22 01:32:46;;;;;;;326.52;226.70;;;;;;;;;;5093807;28;20034;-68
2022/10/22 01:35:14;;;;;;;468.63;287.27;;;;;;;;;;5093335;28;20063;-68
2022/10/22 01:37:52;;;;;;;484.08;290.17;;;;;;;;;;5093754;28;20031;-67
2022/10/22 01:40:19;;;;;;;522.40;301.42;;;;;;;;;;5093515;28;20103;-68
2022/10/22 01:42:56;;;;;;;534.20;302.15;;;;;;;;;;5093649;28;20024;-67
2022/10/22 01:45:22;;;;;;;529.92;301.15;;;;;;;;;;5093666;28;20032;-67
2022/10/22 01:48:06;;;;;;;530.85;302.65;;;;;;;;;;5093242;28;20024;-67
2022/10/22 01:50:51;;;;;;;532.63;302.88;;;;;;;;;;5092244;28;20477;-67
2022/10/22 01:53:25;;;;;;;532.35;303.73;;;;;;;;;;5092275;28;20052;-67
2022/10/22 01:55:51;;;;;;;536.65;304.48;;;;;;;;;;5093033;28;20405;-68
2022/10/22 01:58:17;;;;;;;550.15;311.55;;;;;;;;;;5093502;28;20024;-67
2022/10/22 02:00:45;;;;;;;554.95;306.55;;;;;;;;;;5093470;28;20036;-67
2022/10/22 02:03:18;;;;;;;576.50;316.52;;;;;;;;;;5093168;28;20035;-68
2022/10/22 02:05:47;;;;;;;588.28;324.27;;;;;;;;;;5093565;28;20051;-68
2022/10/22 02:08:15;;;;;;;542.20;307.40;;;;;;;;;;5093493;28;20031;-68
2022/10/22 02:10:43;;;;;;;546.80;309.60;;;;;;;;;;5093723;28;20020;-68
2022/10/22 02:13:12;;;;;;;538.60;304.95;;;;;;;;;;5093338;28;20032;-67
2022/10/22 02:15:38;;;;;;;529.95;297.23;;;;;;;;;;5092801;28;20028;-67
2022/10/22 02:18:06;;;;;;;529.33;300.02;;;;;;;;;;5095042;28;20073;-67
2022/10/22 02:20:34;;;;;;;500.10;280.48;;;;;;;;;;5097389;28;20387;-67
2022/10/22 02:23:00;;;;;;;538.50;301.48;;;;;;;;;;5095624;28;20024;-67
2022/10/22 02:25:35;;;;;;;518.58;299.27;;;;;;;;;;5096057;28;20028;-67
2022/10/22 02:28:12;;;;;;;511.75;291.98;;;;;;;;;;5097767;28;20479;-67
2022/10/22 02:30:40;;;;;;;529.40;302.40;;;;;;;;;;5096719;28;20031;-67
2022/10/22 02:33:12;;;;;;;528.85;299.27;;;;;;;;;;5097133;28;20035;-67
2022/10/22 02:35:40;;;;;;;538.28;306.08;;;;;;;;;;5097087;28;20138;-67
2022/10/22 02:38:06;;;;;;;529.58;301.08;;;;;;;;;;5096665;28;20380;-67
2022/10/22 02:40:32;;;;;;;523.63;295.25;;;;;;;;;;5096955;28;20539;-67
2022/10/22 02:42:58;;;;;;;533.92;302.83;;;;;;;;;;5097204;28;20020;-67
2022/10/22 02:45:25;;;;;;;525.25;296.25;;;;;;;;;;5096534;28;20085;-67
2022/10/22 02:47:51;;;;;;;529.50;297.85;;;;;;;;;;5096907;28;20024;-68
2022/10/22 02:50:17;;;;;;;527.13;300.38;;;;;;;;;;5096982;28;20036;-67
2022/10/22 02:52:43;;;;;;;531.15;302.38;;;;;;;;;;5096414;28;20035;-67
2022/10/22 02:55:09;;;;;;;529.53;297.98;;;;;;;;;;5096475;28;20043;-67
2022/10/22 02:57:36;;;;;;;534.00;300.70;;;;;;;;;;5096295;28;20027;-67
2022/10/22 03:00:02;;;;;;;538.55;305.08;;;;;;;;;;5096648;28;20028;-67
2022/10/22 03:02:28;;;;;;;535.17;301.63;;;;;;;;;;5096607;28;20036;-67
2022/10/22 03:04:54;;;;;;;532.47;298.88;;;;;;;;;;5096208;28;20152;-67
2022/10/22 03:07:20;;;;;;;535.67;302.00;;;;;;;;;;5096483;28;20056;-67
2022/10/22 03:09:46;;;;;;;540.35;307.55;;;;;;;;;;5095125;28;20385;-67
2022/10/22 03:12:12;;;;;;;535.10;300.95;;;;;;;;;;5095983;28;20055;-67
2022/10/22 03:14:38;;;;;;;538.50;306.60;;;;;;;;;;5096336;28;20476;-67
2022/10/22 03:17:04;;;;;;;530.10;295.73;;;;;;;;;;5096444;28;20036;-67
2022/10/22 03:19:31;;;;;;;535.13;300.13;;;;;;;;;;5094622;28;20491;-67
2022/10/22 03:21:59;;;;;;;542.92;307.33;;;;;;;;;;5096472;28;20078;-68
2022/10/22 03:24:28;;;;;;;539.67;303.35;;;;;;;;;;5096226;28;20369;-67
2022/10/22 03:26:54;;;;;;;538.13;300.92;;;;;;;;;;5095696;28;20020;-67
2022/10/22 03:29:22;;;;;;;543.17;306.13;;;;;;;;;;5095641;28;20540;-67
2022/10/22 03:31:48;;;;;;;544.53;307.65;;;;;;;;;;5094802;28;20384;-67
2022/10/22 03:34:14;;;;;;;543.97;307.55;;;;;;;;;;5094494;28;20028;-67
2022/10/22 03:36:41;;;;;;;536.47;297.50;;;;;;;;;;5096171;28;20465;-67
2022/10/22 03:39:07;;;;;;;542.78;303.92;;;;;;;;;;5095876;28;20028;-67
2022/10/22 03:41:34;;;;;;;536.33;297.95;;;;;;;;;;5095424;28;20483;-67
2022/10/22 03:44:01;;;;;;;543.40;308.30;;;;;;;;;;5094606;28;20415;-67
2022/10/22 03:46:27;;;;;;;534.88;300.23;;;;;;;;;;5095739;28;20031;-67
2022/10/22 03:48:53;;;;;;;537.47;302.38;;;;;;;;;;5095349;28;20028;-67
2022/10/22 03:51:20;;;;;;;523.25;293.33;;;;;;;;;;5095627;28;20051;-67
2022/10/22 03:53:46;;;;;;;524.38;297.85;;;;;;;;;;5095239;28;20481;-67
2022/10/22 03:56:12;;;;;;;526.55;299.50;;;;;;;;;;5095353;28;20056;-67
2022/10/22 03:58:39;;;;;;;522.88;299.33;;;;;;;;;;5095683;28;20028;-67
2022/10/22 04:01:06;;;;;;;516.38;295.05;;;;;;;;;;5095003;28;20024;-68
2022/10/22 04:03:33;;;;;;;519.08;297.88;;;;;;;;;;5095630;28;20150;-67
2022/10/22 04:06:03;;;;;;;519.70;297.90;;;;;;;;;;5095322;28;20031;-67
2022/10/22 04:08:29;;;;;;;515.42;294.15;;;;;;;;;;5095073;28;20035;-67
2022/10/22 04:10:55;;;;;;;513.95;293.65;;;;;;;;;;5095408;28;20034;-67
2022/10/22 04:13:21;;;;;;;516.30;294.70;;;;;;;;;;5093948;28;20055;-67
2022/10/22 04:15:47;;;;;;;515.50;294.40;;;;;;;;;;5093444;28;20127;-67
2022/10/22 04:18:13;;;;;;;525.00;301.00;;;;;;;;;;5095099;28;20024;-67
2022/10/22 04:20:40;;;;;;;524.72;301.45;;;;;;;;;;5095124;28;20099;-67
2022/10/22 04:23:07;;;;;;;513.95;298.73;;;;;;;;;;5094721;28;20107;-67
2022/10/22 04:25:33;;;;;;;509.80;295.95;;;;;;;;;;5095114;28;20028;-67
2022/10/22 04:27:59;;;;;;;511.70;297.52;;;;;;;;;;5094951;28;20414;-67
2022/10/22 04:30:25;;;;;;;511.02;296.92;;;;;;;;;;5094633;28;20024;-67
2022/10/22 04:32:51;;;;;;;512.95;297.88;;;;;;;;;;5094790;28;20526;-67
2022/10/22 04:35:17;;;;;;;515.50;299.20;;;;;;;;;;5094687;28;20024;-67
2022/10/22 04:37:43;;;;;;;509.60;289.48;;;;;;;;;;5094343;28;20070;-67
2022/10/22 04:40:10;;;;;;;514.25;299.20;;;;;;;;;;5093937;28;20100;-67
2022/10/22 04:42:36;;;;;;;511.60;299.90;;;;;;;;;;5093318;28;20366;-67
2022/10/22 04:45:02;;;;;;;506.05;295.58;;;;;;;;;;5094187;28;20031;-67
2022/10/22 04:47:28;;;;;;;507.88;296.85;;;;;;;;;;5094598;28;20043;-67
2022/10/22 04:49:54;;;;;;;508.35;297.23;;;;;;;;;;5094502;28;20016;-67
2022/10/22 04:52:20;;;;;;;507.38;296.00;;;;;;;;;;5093992;28;20093;-67
2022/10/22 04:54:46;;;;;;;510.02;297.20;;;;;;;;;;5094119;28;20035;-67
2022/10/22 04:57:13;;;;;;;515.95;298.38;;;;;;;;;;5094027;28;20439;-67
2022/10/22 04:59:39;;;;;;;468.10;252.52;;;;;;;;;;5093032;28;20020;-67
2022/10/22 05:02:05;;;;;;;508.75;296.90;;;;;;;;;;5092992;28;20023;-67
2022/10/22 05:04:31;;;;;;;506.30;294.23;;;;;;;;;;5094076;28;20032;-67
2022/10/22 05:06:58;;;;;;;510.00;298.27;;;;;;;;;;5094502;28;20024;-67
2022/10/22 05:09:24;;;;;;;494.17;288.10;;;;;;;;;;5094202;28;20028;-67
2022/10/22 05:11:51;;;;;;;495.35;287.25;;;;;;;;;;5093689;28;20020;-67
2022/10/22 05:14:18;;;;;;;488.35;274.33;;;;;;;;;;5094347;28;20062;-67
2022/10/22 05:16:46;;;;;;;455.85;238.40;;;;;;;;;;5093915;28;20028;-67
2022/10/22 05:19:23;;;;;;;489.77;279.92;;;;;;;;;;5092266;28;20016;-66
2022/10/22 05:21:49;;;;;;;480.75;264.85;;;;;;;;;;5094213;28;20032;-66
2022/10/22 05:24:16;;;;;;;508.00;296.02;;;;;;;;;;5093866;28;20024;-66
2022/10/22 05:26:42;;;;;;;508.35;297.23;;;;;;;;;;5093498;28;20035;-66
2022/10/22 05:29:08;;;;;;;506.58;295.55;;;;;;;;;;5093973;28;20020;-67
2022/10/22 05:31:34;;;;;;;507.65;295.90;;;;;;;;;;5093928;28;20561;-67
2022/10/22 05:34:00;;;;;;;507.65;296.60;;;;;;;;;;5093443;28;20384;-68
2022/10/22 05:36:27;;;;;;;498.52;285.67;;;;;;;;;;5093709;28;20043;-67
2022/10/22 05:38:53;;;;;;;508.45;297.15;;;;;;;;;;5093637;28;20016;-67
2022/10/22 05:41:21;;;;;;;507.77;296.13;;;;;;;;;;5092024;28;20020;-67
2022/10/22 05:43:47;;;;;;;508.17;294.52;;;;;;;;;;5093702;28;20016;-68
2022/10/22 05:46:17;;;;;;;507.65;295.50;;;;;;;;;;5093668;28;20084;-68
2022/10/22 05:48:44;;;;;;;510.02;297.58;;;;;;;;;;5093917;28;20102;-68
2022/10/22 05:51:11;;;;;;;510.30;298.17;;;;;;;;;;5093434;28;20028;-67
2022/10/22 05:53:39;;;;;;;512.10;298.38;;;;;;;;;;5093143;28;20092;-66
2022/10/22 05:56:08;;;;;;;511.25;296.25;;;;;;;;;;5093129;28;20048;-66
2022/10/22 05:58:34;;;;;;;509.77;297.23;;;;;;;;;;5093454;28;20050;-68
2022/10/22 06:01:01;;;;;;;481.45;264.10;;;;;;;;;;5093020;28;20032;-67
2022/10/22 06:03:28;;;;;;;500.83;289.27;;;;;;;;;;5093447;28;20028;-67
2022/10/22 06:05:54;;;;;;;499.55;288.63;;;;;;;;;;5093504;28;20047;-67
2022/10/22 06:08:20;;;;;;;496.05;285.90;;;;;;;;;;5093162;28;20028;-67
2022/10/22 06:10:46;;;;;;;489.33;284.58;;;;;;;;;;5093374;28;20030;-67
2022/10/22 06:13:12;;;;;;;489.48;286.50;;;;;;;;;;5092151;28;20028;-67
2022/10/22 06:15:38;;;;;;;482.60;279.55;;;;;;;;;;5093194;28;20396;-67
2022/10/22 06:18:04;;;;;;;482.23;280.38;;;;;;;;;;5093380;28;20059;-67
2022/10/22 06:20:33;;;;;;;483.52;285.45;;;;;;;;;;5093259;28;20055;-67
2022/10/22 06:22:59;;;;;;;509.55;297.63;;;;;;;;;;5092859;28;20026;-67
2022/10/22 06:25:25;;;;;;;509.33;294.27;;;;;;;;;;5093772;28;20062;-67
2022/10/22 06:27:51;;;;;;;446.45;275.85;;;;;;;;;;5093838;28;20032;-68
2022/10/22 06:30:17;;;;;;;436.35;272.10;;;;;;;;;;5091590;28;20024;-68
2022/10/22 06:32:43;;;;;;;435.98;269.85;;;;;;;;;;5093160;28;20028;-68
2022/10/22 06:35:10;;;;;;;417.50;263.98;;;;;;;;;;5091812;28;20024;-68
2022/10/22 06:37:36;;;;;;;338.13;236.65;;;;;;;;;;5092688;28;20071;-68
2022/10/22 06:40:02;;;;;;;379.63;250.57;;;;;;;;;;5093428;28;20031;-68
2022/10/22 06:42:28;;;;;;;269.77;212.98;;;;;;;;;;5093088;28;20039;-67
2022/10/22 06:44:54;;;;;;;406.02;260.52;;;;;;;;;;5092636;28;20032;-68
2022/10/22 06:47:20;;;;;;;307.13;224.35;;;;;;;;;;5093189;28;20056;-68
2022/10/22 06:49:48;;;;;;;223.30;190.43;;;;;;;;;;5092665;28;20482;-68
2022/10/22 06:52:14;;;;;;;174.48;156.90;;;;;;;;;;5092975;28;20479;-68
2022/10/22 06:54:40;;;;;;;202.05;179.63;;;;;;;;;;5091553;28;20038;-68
2022/10/22 06:57:07;;;;;;;178.38;160.20;;;;;;;;;;5092641;28;20055;-68
2022/10/22 06:59:33;;;;;;;138.00;126.60;;;;;;;;;;5092974;28;20025;-68
2022/10/22 07:01:59;;;;;;;164.88;148.73;;;;;;;;;;5093382;28;20089;-68
2022/10/22 07:04:25;;;;;;;248.82;196.57;;;;;;;;;;5095897;28;20476;-68
2022/10/22 07:06:54;;;;;;;266.23;203.85;;;;;;;;;;5096872;28;20026;-68
2022/10/22 07:09:20;;;;;;;203.88;177.10;;;;;;;;;;5096664;28;20031;-68
2022/10/22 07:11:46;;;;;;;177.60;159.35;;;;;;;;;;5096070;28;20536;-68
2022/10/22 07:14:12;;;;;;;185.65;165.68;;;;;;;;;;5096415;28;20024;-68
2022/10/22 07:16:41;;;;;;;191.88;171.48;;;;;;;;;;5096416;28;20036;-68
2022/10/22 07:19:08;;;;;;;178.60;160.57;;;;;;;;;;5096039;28;20023;-68
2022/10/22 07:21:34;;;;;;;169.35;153.27;;;;;;;;;;5096350;28;20030;-68
2022/10/22 07:24:00;;;;;;;177.90;160.20;;;;;;;;;;5096234;28;20047;-68
2022/10/22 07:26:29;;;;;;;195.30;174.40;;;;;;;;;;5095755;28;20063;-68
2022/10/22 07:28:55;;;;;;;173.00;156.02;;;;;;;;;;5096169;28;20024;-68
2022/10/22 07:31:21;;;;;;;227.98;189.55;;;;;;;;;;5096309;28;20043;-68
2022/10/22 07:33:47;;;;;;;280.83;208.00;;;;;;;;;;5095645;28;20491;-68
2022/10/22 07:36:18;;;;;;;258.23;200.57;;;;;;;;;;5095831;28;20040;-68
2022/10/22 07:38:45;;;;;;;241.60;196.43;;;;;;;;;;5096088;28;20031;-68
2022/10/22 07:41:11;;;;;;;253.18;204.82;;;;;;;;;;5095527;28;20024;-67
2022/10/22 07:43:37;;;;;;;260.35;207.52;;;;;;;;;;5095731;28;20020;-68
2022/10/22 07:46:03;;;;;;;241.18;200.82;;;;;;;;;;5095329;28;20028;-67
2022/10/22 07:48:29;;;;;;;217.13;188.68;;;;;;;;;;5095613;28;20469;-68
2022/10/22 07:50:57;;;;;;;200.73;179.00;;;;;;;;;;5095674;28;20039;-67
2022/10/22 07:53:23;;;;;;;173.63;156.90;;;;;;;;;;5093911;28;20103;-67
2022/10/22 07:55:50;;;;;;;189.77;170.07;;;;;;;;;;5095359;28;20040;-68
2022/10/22 07:58:17;;;;;;;227.90;193.90;;;;;;;;;;5095540;28;20030;-68
2022/10/22 08:00:44;;;;;;;251.95;202.57;;;;;;;;;;5095124;28;20024;-67
2022/10/22 08:03:11;;;;;;;249.50;201.60;;;;;;;;;;5095498;28;20020;-69
2022/10/22 08:05:38;;;;;;;223.80;191.85;;;;;;;;;;5095513;28;20380;-67
2022/10/22 08:09:15;;;;;;;379.08;253.63;;;;;;;;;;5126954;27;20369;-67
2022/10/22 08:11:41;;;;;;;240.90;201.57;;;;;;;;;;5110059;28;20044;-69
2022/10/22 08:14:07;;;;;;;228.55;194.80;;;;;;;;;;5109367;28;20100;-68
2022/10/22 08:16:33;;;;;;;414.35;265.35;;;;;;;;;;5109942;28;20468;-68
2022/10/22 08:18:59;;;;;;;434.73;277.30;;;;;;;;;;5111212;28;20476;-68
2022/10/22 08:21:25;;;;;;;451.85;277.85;;;;;;;;;;5110727;28;20020;-68
2022/10/22 08:24:30;;;;;;;433.48;271.05;;;;;;;;;;5127332;27;20854;-68
2022/10/22 08:27:18;;;;;;;310.60;228.00;;;;;;;;;;5106852;27;20390;-67
2022/10/22 08:29:44;;;;;;;;;;;;;;;;;;5091051;28;20032;-67
2022/10/22 08:32:10;;;;;;;;;;;;;;;;;;5091268;28;20422;-68
2022/10/22 08:34:36;;;;;;;;;;;;;;;;;;5089955;28;20353;-68
2022/10/22 08:37:02;;;;;;;;;;;;;;;;;;5090904;28;19904;-68
2022/10/22 08:39:28;;;;;;;;;;;;;;;;;;5091271;28;19950;-67
2022/10/22 08:41:54;;;;;;;;;;;;;;;;;;5089882;28;19905;-67
2022/10/22 08:44:20;;;;;;;;;;;;;;;;;;5090648;28;19912;-67
2022/10/22 08:46:46;;;;;;;;;;;;;;;;;;5091501;28;19912;-67
2022/10/22 08:49:12;;;;;;;;;;;;;;;;;;5090841;28;20378;-67
2022/10/22 08:51:39;;;;;;;;;;;;;;;;;;5089677;28;19944;-68
2022/10/22 08:54:05;;;;;;;;;;;;;;;;;;5090986;28;20357;-68
2022/10/22 08:56:31;;;;;;;;;;;;;;;;;;5089247;28;19911;-68
2022/10/22 08:58:57;;;;;;;;;;;;;;;;;;5090842;28;19936;-67
2022/10/22 09:01:23;;;;;;;;;;;;;;;;;;5091053;28;19905;-68
2022/10/22 09:03:48;;;;;;;;;;;;;;;;;;5090217;28;19904;-68
2022/10/22 09:07:26;;;;;;;;;;;;;;;;;;5128188;27;20799;-68
2022/10/22 09:09:52;;;;;;;;;;;;;;;;;;5111648;28;19917;-68
2022/10/22 09:13:53;;;;;;;;;;;;;;;;;;5104166;27;19920;-66
2022/10/22 09:16:19;;;;;;;;;;;;;;;;;;5071162;28;19913;-66
2022/10/22 09:19:51;;;;;;;;;;;;;;;;;;5103186;27;19912;-67
2022/10/22 09:22:50;;;;;;;;;;;;;;;;;;5103481;27;20359;-69
2022/10/22 09:25:16;;;;;;;;;;;;;;;;;;5070635;28;20332;-67
2022/10/22 09:30:08;;;;;;;;;;;;;;;;;;5127814;27;20370;-67
2022/10/22 09:32:52;;;;;;;;;;;;;;;;;;5172542;27;19958;-67
2022/10/22 09:35:18;;;;;;;;;;;;;;;;;;5173716;27;19911;-67
2022/10/22 09:37:44;;;;;;;;;;;;;;;;;;5173655;27;20407;-68
2022/10/22 09:40:37;;;;;;;;;;;;;;;;;;5106784;27;19913;-67
2022/10/22 09:43:52;;;;;;;;;;;;;;;;;;5103991;27;20319;-67
2022/10/22 09:46:18;;;;;;;;;;;;;;;;;;5070704;28;19913;-67
2022/10/22 09:48:44;;;;;;;;;;;;;;;;;;5071080;28;19909;-67
2022/10/22 09:54:23;;;;;;;298.80;213.10;;;;;;;;;;5126923;27;20373;-67
2022/10/22 10:00:54;;;;;;;;;;;;;;;;;;5127301;27;20389;-68
2022/10/22 10:07:10;;;;;;;;;;;;;;;;;;5124221;27;20382;-67
2022/10/22 10:10:19;;;;;;;;;;;;;;;;;;5127906;27;20388;-67
2022/10/22 10:14:40;;;;;;;;;;;;;;;;;;5127485;27;20373;-67
2022/10/22 10:18:36;;;;;;;410.02;248.02;;;;;;;;;;5107373;27;20381;-67
2022/10/22 10:21:05;;;;;;;581.63;266.23;;;;;;;;;;5090855;28;20029;-67
2022/10/22 10:25:05;;;;;;;;;;;;;;;;;;5107976;27;20378;-67
2022/10/22 10:27:31;;;;;;;;;;;;;;;;;;5091318;28;20277;-67
2022/10/22 10:30:56;;;;;;;188.25;166.20;;;;;;;;;;5127280;27;20390;-67
2022/10/22 10:33:22;;;;;;;;;;;;;;;;;;5111809;28;20051;-67
2022/10/22 10:37:18;;;;;;;651.25;300.80;;;;;;;;;;5126433;27;20445;-67
2022/10/22 10:41:26;;;;;;;317.77;217.35;;;;;;;;;;5126528;27;20552;-66
2022/10/22 10:43:52;;;;;;;;;;;;;;;;;;5111363;28;20034;-67
2022/10/22 10:46:18;;;;;;;;;;;;;;;;;;5111517;28;20002;-67
2022/10/22 10:48:44;;;;;;;;;;;;;;;;;;5111664;28;20283;-67
2022/10/22 10:51:59;;;;;;;;;;;;;;;;;;5127571;27;20760;-67
2022/10/22 10:56:55;;;;;;;524.80;270.58;;;;;;;;;;5142886;27;20840;-67
2022/10/22 11:00:53;;;;;;;;;;;;;;;;;;5127609;27;20520;-67
2022/10/22 11:03:34;;;;;;;229.33;196.80;;;;;;;;;;5110211;28;20393;-67
2022/10/22 11:06:00;;;;;;;;;;;;;;;;;;5111779;28;20259;-68
2022/10/22 11:08:26;;;;;;;;;;;;;;;;;;5111471;28;20360;-68
2022/10/22 11:12:11;;;;;;;;;;;;;;;;;;5103292;27;19917;-67
2022/10/22 11:14:37;;;;;;;;;;;;;;;;;;5071068;28;20281;-68
2022/10/22 11:17:03;;;;;;;;;;;;;;;;;;5070676;28;19908;-68
2022/10/22 11:19:29;;;;;;;;;;;;;;;;;;5071625;28;19915;-68
2022/10/22 11:22:05;;;;;;;;;;;;;;;;;;5103618;27;20369;-68
2022/10/22 11:24:33;;;;;;;;;;;;;;;;;;5070756;28;19913;-67
2022/10/22 11:26:59;;;;;;;;;;;;;;;;;;5071040;28;19909;-67
2022/10/22 11:29:28;;;;;;;438.33;258.58;;;;;;;;;;5069694;28;20394;-67
2022/10/22 11:31:54;;;;;;;;;;;;;;;;;;5069224;28;20111;-67
2022/10/22 11:34:21;;;;;;;;;;;;;;;;;;5069584;28;19940;-67
2022/10/22 11:36:47;;;;;;;;;;;;;;;;;;5070886;28;19991;-67
2022/10/22 11:39:12;;;;;;;;;;;;;;;;;;5069184;28;19951;-68
2022/10/22 11:41:39;;;;;;;;;;;;;;;;;;5070756;28;19919;-67
2022/10/22 11:44:05;;;;;;;;;;;;;;;;;;5070855;28;19912;-67
2022/10/22 11:46:31;;;;;;;;;;;;;;;;;;5070363;28;20302;-67
2022/10/22 11:49:05;;;;;;;279.30;215.45;;;;;;;;;;5070405;28;20050;-68
2022/10/22 11:53:03;;;;;;;632.35;296.00;;;;;;;;;;5101682;27;20424;-67
2022/10/22 11:55:30;;;;;;;;;;;;;;;;;;5071061;28;20060;-67
2022/10/22 11:57:55;;;;;;;;;;;;;;;;;;5069706;28;19905;-67
2022/10/22 12:00:39;;;;;;;560.08;294.88;;;;;;;;;;5067994;28;20465;-67
2022/10/22 12:05:22;;;;;;;245.70;163.00;;;;;;;;;;5107587;27;20382;-67
2022/10/22 12:08:12;;;;;;;;;;;;;;;;;;5127413;27;20369;-69
2022/10/22 12:10:56;;;;;;;669.40;318.30;;;;;;;;;;5109046;28;20400;-68
2022/10/22 12:13:22;;;;;;;;;;;;;;;;;;5110100;28;20054;-68
2022/10/22 12:15:48;;;;;;;;;;;;;;;;;;5111686;28;20380;-69
2022/10/22 12:18:15;;;;;;;458.80;281.17;;;;;;;;;;5110991;28;20405;-68
2022/10/22 12:20:41;;;;;;;;;;;;;;;;;;5111184;28;20031;-69
2022/10/22 12:23:10;;;;;;;539.97;298.58;;;;;;;;;;5109343;28;20365;-69
2022/10/22 12:25:37;;;;;;;;;;;;;;;;;;5111435;28;20016;-68
2022/10/22 12:28:03;;;;;;;554.87;308.43;;;;;;;;;;5109690;28;20507;-67
2022/10/22 12:30:29;;;;;;;;;;;;;;;;;;5109968;28;20314;-67
2022/10/22 12:32:55;;;;;;;;;;;;;;;;;;5111225;28;19907;-67
2022/10/22 12:35:21;;;;;;;;;;;;;;;;;;5110666;28;19904;-67
2022/10/22 12:37:57;;;;;;;470.40;289.58;;;;;;;;;;5110579;28;20396;-67
2022/10/22 12:40:23;;;;;;;;;;;;;;;;;;5111065;28;20488;-67
2022/10/22 12:42:50;;;;;;;503.92;296.23;;;;;;;;;;5109133;28;20389;-67
2022/10/22 12:45:16;;;;;;;;;;;;;;;;;;5109736;28;20024;-67
2022/10/22 12:47:49;;;;;;;427.55;280.00;;;;;;;;;;5110138;28;20443;-67
2022/10/22 12:50:16;;;;;;;;;;;;;;;;;;5110649;28;20028;-68
2022/10/22 12:52:42;;;;;;;399.95;270.83;;;;;;;;;;5109969;28;20393;-67
2022/10/22 12:55:09;;;;;;;;;;;;;;;;;;5110847;28;20508;-67
2022/10/22 12:57:35;;;;;;;;;;;;;;;;;;5110370;28;20009;-67
2022/10/22 13:00:01;;;;;;;;;;;;;;;;;;5110720;28;20276;-67
2022/10/22 13:02:27;;;;;;;539.65;309.25;;;;;;;;;;5109163;28;20404;-67
2022/10/22 13:04:53;;;;;;;;;;;;;;;;;;5110934;28;20097;-67
2022/10/22 13:07:19;;;;;;;;;;;;;;;;;;5110342;28;19916;-67
2022/10/22 13:09:54;;;;;;;426.73;282.15;;;;;;;;;;5109502;28;20400;-68
2022/10/22 13:12:20;;;;;;;;;;;;;;;;;;5109096;28;20063;-67
2022/10/22 13:14:46;;;;;;;487.45;297.90;;;;;;;;;;5108986;28;20417;-67
2022/10/22 13:17:13;;;;;;;;;;;;;;;;;;5110104;28;20031;-67
2022/10/22 13:19:41;;;;;;;423.90;274.10;;;;;;;;;;5096188;28;19904;-67
2022/10/22 13:22:07;;;;;;;;;;;;;;;;;;5096839;28;20024;-67
2022/10/22 13:24:37;;;;;;;553.30;314.95;;;;;;;;;;5093458;28;20917;-67
2022/10/22 13:27:03;;;;;;;;;;;;;;;;;;5095380;28;20377;-67
2022/10/22 13:29:29;;;;;;;563.92;315.70;;;;;;;;;;5095599;28;20401;-68
2022/10/22 13:31:55;;;;;;;;;;;;;;;;;;5096299;28;20024;-68
2022/10/22 13:34:23;;;;;;;562.40;314.30;;;;;;;;;;5094887;28;20374;-68
2022/10/22 13:36:49;;;;;;;;;;;;;;;;;;5096515;28;20020;-67
2022/10/22 13:39:19;;;;;;;554.70;313.17;;;;;;;;;;5093412;28;20397;-67
2022/10/22 13:41:45;;;;;;;;;;;;;;;;;;5096289;28;20028;-67
2022/10/22 13:44:12;;;;;;;504.23;307.85;;;;;;;;;;5095153;28;20373;-68
2022/10/22 13:46:41;;;;;;;;;;;;;;;;;;5095829;28;20107;-67
2022/10/22 13:49:12;;;;;;;522.97;309.07;;;;;;;;;;5093398;28;20426;-67
2022/10/22 13:51:38;;;;;;;;;;;;;;;;;;5096239;28;20026;-67
2022/10/22 13:54:10;;;;;;;522.30;306.83;;;;;;;;;;5093041;28;20409;-67
2022/10/22 13:56:36;;;;;;;;;;;;;;;;;;5096284;28;20016;-67
2022/10/22 13:59:02;;;;;;;525.97;309.70;;;;;;;;;;5093886;28;20965;-67
2022/10/22 14:01:28;;;;;;;;;;;;;;;;;;5094612;28;20114;-67
2022/10/22 14:03:54;;;;;;;;;;;;;;;;;;5096072;28;20076;-67
2022/10/22 14:06:21;;;;;;;503.48;307.33;;;;;;;;;;5092922;28;20416;-70
2022/10/22 14:08:49;;;;;;;;;;;;;;;;;;5096284;28;20099;-68
2022/10/22 14:11:15;;;;;;;491.48;307.90;;;;;;;;;;5094468;28;20455;-68
2022/10/22 14:13:41;;;;;;;;;;;;;;;;;;5095402;28;20472;-68
2022/10/22 14:16:14;;;;;;;483.63;305.13;;;;;;;;;;5094302;28;20381;-68
2022/10/22 14:18:40;;;;;;;;;;;;;;;;;;5094441;28;20024;-68
2022/10/22 14:21:07;;;;;;;477.33;300.75;;;;;;;;;;5094090;28;20388;-67
2022/10/22 14:23:33;;;;;;;;;;;;;;;;;;5095605;28;20016;-67
2022/10/22 14:25:59;;;;;;;292.42;237.35;;;;;;;;;;5094726;28;20403;-68
2022/10/22 14:28:25;;;;;;;;;;;;;;;;;;5095206;28;20020;-67
2022/10/22 14:30:52;;;;;;;366.85;267.27;;;;;;;;;;5093569;28;20485;-67
2022/10/22 14:33:18;;;;;;;;;;;;;;;;;;5095788;28;20433;-68
2022/10/22 14:35:44;;;;;;;406.48;278.25;;;;;;;;;;5092428;28;20461;-67
2022/10/22 14:38:10;;;;;;;;;;;;;;;;;;5095640;28;20039;-68
2022/10/22 14:40:40;;;;;;;400.17;275.20;;;;;;;;;;5094360;28;20753;-68
2022/10/22 14:43:06;;;;;;;;;;;;;;;;;;5094979;28;20578;-68
2022/10/22 14:45:32;;;;;;;387.80;267.38;;;;;;;;;;5093747;28;20393;-67
2022/10/22 14:47:58;;;;;;;;;;;;;;;;;;5094701;28;20032;-67
2022/10/22 14:50:24;;;;;;;;;;;;;;;;;;5095183;28;19908;-68
2022/10/22 14:52:50;;;;;;;;;;;;;;;;;;5094904;28;19934;-68
2022/10/22 14:55:16;;;;;;;;;;;;;;;;;;5094364;28;19948;-68
2022/10/22 14:57:42;;;;;;;;;;;;;;;;;;5094711;28;19908;-67
2022/10/22 15:00:08;;;;;;;;;;;;;;;;;;5094738;28;19904;-68
2022/10/22 15:02:34;;;;;;;;;;;;;;;;;;5093129;28;19908;-68
2022/10/22 15:05:00;;;;;;;;;;;;;;;;;;5094762;28;19911;-67
2022/10/22 15:07:26;;;;;;;;;;;;;;;;;;5094576;28;19916;-68
2022/10/22 15:09:52;;;;;;;;;;;;;;;;;;5094295;28;19908;-68
2022/10/22 15:12:19;;;;;;;;;;;;;;;;;;5094730;28;20379;-68
2022/10/22 15:14:45;;;;;;;;;;;;;;;;;;5093362;28;19994;-68
2022/10/22 15:17:11;;;;;;;;;;;;;;;;;;5092941;28;19944;-68
2022/10/22 15:19:37;;;;;;;;;;;;;;;;;;5094565;28;19904;-67
2022/10/22 15:22:04;;;;;;;;;;;;;;;;;;5093228;28;19904;-67